Leesburg International Airport
KLEE : now visible

Airfield :











YOU CAN JOIN US ON...

 
LOGIN :

Register | Disclaimer

   EN    FR    IT 

 









Legend :    VFR   Marginal VFR   IFR   Intensive IFR   Very Intensive IFR
Visi :
Ceiling :
>= 8 km
>= 3000ft
5 to 8 km
1000 to 3000 ft
1500m to 5 km
500 to 1000 ft
800 to 1500m
200 to 500 ft
< 800m
< 200 ft
Symbols :   Thunderstorms  Fog  Heavy snow  Heavy precipitations  Wind > 20 kt






- Airport Elevation : 76 ft


KLEE - Leesburg International

CURRENT METAR :
  • 290753Z AUTO 00000KT 10SM CLR 15/14 A3009 RMK AO2 SLP189 T01500144

EXPIRED METARs :
  • 290653Z AUTO 00000KT 10SM CLR 15/14 A3009 RMK AO2 SLP189 T01500144
  • 290553Z AUTO 00000KT 10SM CLR 16/14 A3009 RMK AO2 SLP189 T01560144 10200 20150 56001

TAF KLEE
Valid from the 29 at 06:00 until the 30 at 06:00 UTC


290525Z 2906/3006 03003KT P6SM SKC
TEMPO 2909/2912 4SM BR SCT010
FM291500 10007KT P6SM SCT200
KZJX FIR / North America



MET'MAP, your aeronautical weather chart ! - Copyright ORBIFLY December 2007 - Disclaimer

ORBIFLY MET'MAP TEAM :

Programming & Development : Alexandra Zaïnal
Original concept : Baudouin d'Aumeries
Technical & hardware support : Manuel Goepfert
Assistance : Marc-Olivier Méhu




SOURCES & CREDITS :

   NOAA       Earth
Advisory